Time;durP1;ratioP1;P1;durP2;ratioP2;P2;SDS_P1;SDS_P2;PMS_P1;PMS_P2;Temp;Humidity;BMP_temperature;BMP_pressure;BME280_temperature;BME280_humidity;BME280_pressure;Samples;Min_cycle;Max_cycle;Signal;HPM_P1;HPM_P2
2022/12/04 00:01:15;;;;;;;27.05;9.82;;;1.10;99.90;;;;;;5020854;28;20032;-80
2022/12/04 00:03:41;;;;;;;22.30;9.07;;;1.10;99.90;;;;;;5021282;28;20044;-80
2022/12/04 00:06:10;;;;;;;23.27;10.23;;;1.10;99.90;;;;;;5037160;28;20044;-79
2022/12/04 00:08:36;;;;;;;21.40;9.18;;;1.20;99.90;;;;;;5037189;28;20197;-79
2022/12/04 00:11:06;;;;;;;20.38;9.30;;;1.20;99.90;;;;;;5037105;28;20466;-79
2022/12/04 00:13:32;;;;;;;23.80;7.88;;;1.20;99.90;;;;;;5037119;28;20056;-80
2022/12/04 00:15:58;;;;;;;27.17;9.35;;;1.10;99.90;;;;;;5020489;28;20102;-80
2022/12/04 00:18:24;;;;;;;24.88;9.05;;;1.80;99.90;;;;;;5020379;28;20450;-80
2022/12/04 00:20:50;;;;;;;21.27;9.80;;;1.20;99.90;;;;;;5036933;28;20442;-79
2022/12/04 00:23:16;;;;;;;23.55;10.07;;;1.10;99.90;;;;;;5037039;28;20037;-79
2022/12/04 00:25:47;;;;;;;20.02;8.55;;;1.20;99.90;;;;;;5020245;28;20041;-79
2022/12/04 00:28:16;;;;;;;26.48;9.50;;;1.10;99.90;;;;;;5037101;28;20033;-79
2022/12/04 00:30:42;;;;;;;30.30;10.43;;;1.10;99.90;;;;;;5020291;28;20041;-80
2022/12/04 00:33:08;;;;;;;18.88;9.35;;;2.30;99.90;;;;;;5019881;28;20045;-79
2022/12/04 00:35:34;;;;;;;21.98;9.35;;;1.10;99.90;;;;;;5036378;28;20036;-80
2022/12/04 00:38:00;;;;;;;27.65;9.73;;;1.10;99.90;;;;;;5020009;28;20128;-80
2022/12/04 00:40:25;;;;;;;25.60;10.18;;;1.10;99.90;;;;;;5036539;28;20052;-80
2022/12/04 00:42:51;;;;;;;18.52;8.90;;;1.00;99.90;;;;;;5020006;28;20033;-80
2022/12/04 00:45:17;;;;;;;23.05;9.27;;;1.10;99.90;;;;;;5036452;28;20542;-79
2022/12/04 00:47:43;;;;;;;29.30;10.20;;;2.60;99.90;;;;;;5036367;28;20384;-79
2022/12/04 00:50:09;;;;;;;21.85;8.98;;;1.10;99.90;;;;;;5036160;28;20051;-79
2022/12/04 00:52:34;;;;;;;30.05;10.73;;;1.00;99.90;;;;;;5020176;28;20098;-79
2022/12/04 00:55:00;;;;;;;32.38;9.98;;;1.00;99.90;;;;;;5036566;28;20123;-79
2022/12/04 00:57:26;;;;;;;23.35;9.05;;;1.00;99.90;;;;;;5036374;28;20037;-79
2022/12/04 00:59:51;;;;;;;20.73;8.35;;;1.90;99.90;;;;;;5019758;28;20040;-80
2022/12/04 01:02:17;;;;;;;20.98;8.63;;;1.00;99.90;;;;;;5020022;28;20036;-80
2022/12/04 01:04:42;;;;;;;22.13;9.15;;;1.00;99.90;;;;;;5035922;28;20511;-79
2022/12/04 01:07:08;;;;;;;26.38;9.07;;;1.10;99.90;;;;;;5019595;28;20095;-79
2022/12/04 01:09:34;;;;;;;24.15;9.95;;;1.10;99.90;;;;;;5036017;28;20128;-80
2022/12/04 01:11:59;;;;;;;22.55;8.90;;;1.00;99.90;;;;;;5019565;28;20052;-79
2022/12/04 01:14:25;;;;;;;22.92;9.55;;;1.00;99.90;;;;;;5019495;28;20195;-80
2022/12/04 01:16:51;;;;;;;18.45;8.23;;;1.00;99.90;;;;;;5019802;28;20479;-80
2022/12/04 01:19:16;;;;;;;22.00;10.30;;;1.70;99.90;;;;;;5036223;28;20041;-79
2022/12/04 01:21:42;;;;;;;24.27;10.07;;;1.00;99.90;;;;;;5036045;28;20045;-80
2022/12/04 01:24:08;;;;;;;23.98;9.82;;;1.00;99.90;;;;;;5035778;28;20041;-80
2022/12/04 01:26:34;;;;;;;22.92;9.80;;;1.00;99.90;;;;;;5019160;28;20535;-79
2022/12/04 01:29:00;;;;;;;21.55;9.13;;;1.00;99.90;;;;;;5019168;28;20399;-80
2022/12/04 01:31:26;;;;;;;23.20;9.45;;;1.00;99.90;;;;;;5035649;28;20073;-80
2022/12/04 01:33:51;;;;;;;21.45;9.23;;;0.90;99.90;;;;;;5019150;28;20459;-80
2022/12/04 01:36:21;;;;;;;23.30;9.50;;;0.90;99.90;;;;;;5035520;28;20067;-80
2022/12/04 01:38:46;;;;;;;17.45;9.20;;;0.90;99.90;;;;;;5018993;28;20037;-79
2022/12/04 01:41:15;;;;;;;23.90;10.05;;;0.90;99.90;;;;;;5019052;28;20040;-80
2022/12/04 01:43:40;;;;;;;22.80;10.48;;;0.90;99.90;;;;;;5018983;28;20119;-80
2022/12/04 01:46:07;;;;;;;22.30;8.68;;;0.90;99.90;;;;;;5019050;28;20202;-79
2022/12/04 01:48:38;;;;;;;23.05;9.05;;;0.90;99.90;;;;;;5035349;28;20040;-80
2022/12/04 01:51:13;;;;;;;35.08;11.82;;;0.90;99.90;;;;;;5018875;28;20037;-80
2022/12/04 01:53:42;;;;;;;25.90;9.95;;;0.90;99.90;;;;;;5018874;28;20408;-79
2022/12/04 01:56:09;;;;;;;23.85;9.25;;;0.90;99.90;;;;;;5035576;28;20052;-79
2022/12/04 01:58:42;;;;;;;27.75;11.68;;;0.90;99.90;;;;;;5018624;28;20128;-80
2022/12/04 02:01:08;;;;;;;26.70;10.48;;;0.80;99.90;;;;;;5035649;28;20045;-79
2022/12/04 02:03:35;;;;;;;22.20;10.65;;;0.80;99.90;;;;;;5018683;28;20400;-80
2022/12/04 02:06:01;;;;;;;24.60;10.48;;;0.80;99.90;;;;;;5035286;28;20037;-80
2022/12/04 02:08:28;;;;;;;23.42;9.98;;;0.80;99.90;;;;;;5018805;28;20033;-79
2022/12/04 02:11:15;;;;;;;25.45;10.18;;;1.10;99.90;;;;;;5035316;28;20048;-79
2022/12/04 02:13:50;;;;;;;26.98;11.23;;;0.80;99.90;;;;;;5018451;28;20132;-79
2022/12/04 02:16:56;;;;;;;25.27;9.65;;;0.80;99.90;;;;;;5034946;28;20071;-79
2022/12/04 02:19:27;;;;;;;24.65;10.50;;;0.80;99.90;;;;;;4994524;28;20410;-79
2022/12/04 02:21:56;;;;;;;25.52;9.35;;;0.80;99.90;;;;;;5028315;28;20049;-79
2022/12/04 02:24:36;;;;;;;32.58;10.93;;;0.80;99.90;;;;;;5034613;28;20068;-79
2022/12/04 02:27:14;;;;;;;26.45;10.68;;;0.80;99.90;;;;;;5034871;28;20068;-79
2022/12/04 02:30:03;;;;;;;27.80;10.10;;;0.90;99.90;;;;;;5035073;28;20052;-80
2022/12/04 02:32:37;;;;;;;23.52;9.73;;;0.90;99.90;;;;;;5035034;28;20048;-80
2022/12/04 02:35:42;;;;;;;24.45;9.25;;;0.90;99.90;;;;;;5018257;28;20448;-79
2022/12/04 02:38:16;;;;;;;24.52;9.27;;;0.90;99.90;;;;;;5034177;28;20053;-80
2022/12/04 02:41:23;;;;;;;21.48;10.30;;;0.90;99.90;;;;;;5018319;28;20086;-79
2022/12/04 02:43:54;;;;;;;25.92;8.93;;;0.80;99.90;;;;;;5026387;28;20041;-79
2022/12/04 02:46:25;;;;;;;25.33;9.10;;;0.90;99.90;;;;;;5034670;28;20041;-79
2022/12/04 02:48:56;;;;;;;23.50;9.40;;;2.20;99.90;;;;;;5034924;28;20037;-79
2022/12/04 02:51:23;;;;;;;23.83;9.20;;;0.90;99.90;;;;;;5018470;28;20079;-80
2022/12/04 02:53:55;;;;;;;26.45;10.02;;;0.80;99.90;;;;;;5018107;28;20402;-79
2022/12/04 02:56:42;;;;;;;24.50;9.90;;;0.80;99.90;;;;;;5018403;28;20492;-80
2022/12/04 02:59:25;;;;;;;28.73;12.40;;;0.80;99.90;;;;;;5038487;28;20160;-80
2022/12/04 03:01:55;;;;;;;25.13;9.45;;;0.80;99.90;;;;;;5022191;28;20484;-80
2022/12/04 03:04:26;;;;;;;23.83;10.18;;;0.80;99.90;;;;;;5038410;28;20091;-79
2022/12/04 03:06:58;;;;;;;24.00;10.20;;;2.00;99.90;;;;;;5038276;28;20399;-79
2022/12/04 03:09:33;;;;;;;23.10;9.85;;;0.80;99.90;;;;;;5021997;28;20388;-79
2022/12/04 03:12:33;;;;;;;32.67;11.35;;;0.80;99.90;;;;;;5021773;28;20098;-79
2022/12/04 03:15:18;;;;;;;25.63;10.25;;;0.80;99.90;;;;;;5025362;28;20052;-79
2022/12/04 03:17:55;;;;;;;23.45;10.23;;;0.80;99.90;;;;;;5038093;28;20396;-79
2022/12/04 03:20:22;;;;;;;33.17;10.63;;;0.80;99.90;;;;;;5021552;28;20041;-79
2022/12/04 03:22:57;;;;;;;21.38;10.73;;;0.80;99.90;;;;;;5021482;28;20048;-79
2022/12/04 03:25:31;;;;;;;26.63;10.57;;;0.70;99.90;;;;;;5021362;28;20060;-79
2022/12/04 03:28:01;;;;;;;19.83;9.65;;;0.70;99.90;;;;;;5038255;28;20175;-79
2022/12/04 03:30:35;;;;;;;23.05;10.95;;;0.70;99.90;;;;;;5021538;28;20431;-79
2022/12/04 03:33:11;;;;;;;35.92;11.93;;;0.70;99.90;;;;;;5021607;28;20395;-79
2022/12/04 03:35:46;;;;;;;29.27;11.18;;;0.80;99.90;;;;;;5021706;28;20052;-79
2022/12/04 03:38:47;;;;;;;25.25;10.80;;;0.70;99.90;;;;;;5021262;28;20052;-79
2022/12/04 03:41:59;;;;;;;25.95;10.48;;;0.70;99.90;;;;;;5018217;28;20079;-79
2022/12/04 03:44:37;;;;;;;17.20;8.80;;;0.70;99.90;;;;;;5024723;28;20049;-80
2022/12/04 03:47:12;;;;;;;24.13;10.63;;;0.70;99.90;;;;;;5037595;28;20079;-79
2022/12/04 03:50:20;;;;;;;30.88;11.05;;;0.70;99.90;;;;;;5021239;28;20081;-80
2022/12/04 03:52:57;;;;;;;26.95;10.32;;;1.80;99.90;;;;;;4977829;28;20405;-79
2022/12/04 03:55:31;;;;;;;28.65;11.50;;;0.60;99.90;;;;;;5032695;28;20111;-79
2022/12/04 03:58:03;;;;;;;31.17;11.35;;;0.60;99.90;;;;;;5037497;28;20087;-79
2022/12/04 04:00:31;;;;;;;23.65;10.73;;;1.70;99.90;;;;;;5037495;28;20051;-79
2022/12/04 04:03:19;;;;;;;22.10;9.93;;;1.80;99.90;;;;;;5037274;28;20033;-79
2022/12/04 04:05:48;;;;;;;32.67;11.35;;;0.60;99.90;;;;;;5020706;28;20051;-79
2022/12/04 04:08:28;;;;;;;23.80;10.30;;;0.60;99.90;;;;;;5020050;28;20415;-79
2022/12/04 04:11:17;;;;;;;30.52;11.82;;;0.60;99.90;;;;;;5020442;28;20043;-79
2022/12/04 04:25:15;;;;;;;24.60;10.88;;;0.60;99.90;;;;;;5036668;28;20089;-79
2022/12/04 04:27:40;;;;;;;28.27;12.30;;;0.60;99.90;;;;;;5020208;28;20074;-79
2022/12/04 04:30:08;;;;;;;26.40;10.38;;;0.60;99.90;;;;;;5037011;28;20036;-79
2022/12/04 04:32:41;;;;;;;24.88;11.38;;;0.60;99.90;;;;;;5020112;28;20079;-79
2022/12/04 04:35:22;;;;;;;25.08;10.32;;;0.50;99.90;;;;;;5020191;28;20048;-79
2022/12/04 04:37:59;;;;;;;25.63;11.30;;;0.50;99.90;;;;;;5020141;28;20047;-79
2022/12/04 04:40:40;;;;;;;24.38;10.55;;;0.50;99.90;;;;;;5020103;28;20322;-79
2022/12/04 04:43:17;;;;;;;32.00;10.55;;;0.50;99.90;;;;;;5020109;28;20041;-79
2022/12/04 04:46:21;;;;;;;22.15;10.07;;;0.50;99.90;;;;;;5036412;28;20400;-80
2022/12/04 04:48:51;;;;;;;21.02;10.43;;;0.60;99.90;;;;;;4976631;28;20042;-79
2022/12/04 04:51:18;;;;;;;26.40;11.20;;;0.60;99.90;;;;;;5016913;28;20407;-79
2022/12/04 04:53:48;;;;;;;30.20;12.35;;;0.60;99.90;;;;;;5019802;28;20041;-79
2022/12/04 04:56:14;;;;;;;22.48;9.90;;;0.60;99.90;;;;;;5036322;28;20090;-79
2022/12/04 04:58:41;;;;;;;28.77;10.35;;;0.60;99.90;;;;;;5036216;28;20083;-79
2022/12/04 05:01:13;;;;;;;24.00;10.38;;;0.90;99.90;;;;;;5019938;28;20033;-79
2022/12/04 05:03:39;;;;;;;26.42;10.93;;;0.60;99.90;;;;;;5019641;28;20448;-79
2022/12/04 05:06:05;;;;;;;31.17;10.23;;;0.50;99.90;;;;;;5036013;28;20376;-79
2022/12/04 05:08:32;;;;;;;26.88;10.73;;;0.50;99.90;;;;;;5035994;28;20044;-79
2022/12/04 05:10:58;;;;;;;26.90;10.48;;;0.60;99.90;;;;;;5035932;28;20044;-79
2022/12/04 05:13:23;;;;;;;27.67;11.10;;;0.60;99.90;;;;;;5036221;28;20047;-79
2022/12/04 05:16:07;;;;;;;23.15;10.68;;;0.60;99.90;;;;;;5019647;28;20047;-79
2022/12/04 05:18:34;;;;;;;31.08;12.85;;;0.50;99.90;;;;;;5019432;28;20507;-79
2022/12/04 05:21:08;;;;;;;24.70;9.60;;;0.60;99.90;;;;;;5019021;28;20045;-79
2022/12/04 05:23:33;;;;;;;27.17;10.90;;;0.50;99.90;;;;;;5035731;28;20040;-79
2022/12/04 05:26:04;;;;;;;28.73;11.55;;;0.50;99.90;;;;;;5019006;28;20057;-79
2022/12/04 05:28:30;;;;;;;21.73;9.20;;;0.50;99.90;;;;;;5036283;28;20041;-79
2022/12/04 05:30:58;;;;;;;26.15;10.88;;;0.60;99.90;;;;;;5035841;28;20491;-78
2022/12/04 05:33:23;;;;;;;20.73;9.32;;;0.50;99.90;;;;;;5019080;28;20040;-79
2022/12/04 05:36:00;;;;;;;25.23;11.50;;;1.80;99.90;;;;;;5035801;28;20506;-78
2022/12/04 05:38:26;;;;;;;28.15;10.23;;;2.20;99.90;;;;;;5035471;28;20122;-77
2022/12/04 05:40:52;;;;;;;22.02;10.00;;;0.60;99.90;;;;;;5019279;28;20040;-78
2022/12/04 05:43:18;;;;;;;27.42;11.63;;;0.80;99.90;;;;;;5019187;28;20033;-78
2022/12/04 05:45:44;;;;;;;21.63;9.95;;;0.60;99.90;;;;;;5019127;28;20471;-78
2022/12/04 05:48:09;;;;;;;25.90;11.07;;;0.50;99.90;;;;;;5035308;28;20063;-77
2022/12/04 05:50:37;;;;;;;24.85;10.38;;;0.60;99.90;;;;;;5035319;28;20112;-78
2022/12/04 05:53:03;;;;;;;27.00;11.02;;;0.60;99.90;;;;;;5018999;28;20044;-79
2022/12/04 05:55:29;;;;;;;27.45;10.88;;;2.10;99.90;;;;;;5019039;28;20098;-79
2022/12/04 05:57:56;;;;;;;25.38;10.55;;;0.60;99.90;;;;;;5018841;28;20036;-79
2022/12/04 06:00:21;;;;;;;26.05;9.43;;;0.60;99.90;;;;;;5035014;28;20037;-79
2022/12/04 06:02:47;;;;;;;24.17;9.80;;;0.60;99.90;;;;;;5035346;28;20123;-79
2022/12/04 06:05:13;;;;;;;24.23;9.98;;;0.60;99.90;;;;;;5035447;28;20036;-79
2022/12/04 06:07:38;;;;;;;21.50;10.40;;;0.60;99.90;;;;;;5035097;28;20048;-79
2022/12/04 06:10:05;;;;;;;23.30;10.32;;;0.60;99.90;;;;;;5035316;28;20043;-78
2022/12/04 06:12:31;;;;;;;23.73;9.07;;;0.60;99.90;;;;;;5035140;28;20045;-77
2022/12/04 06:14:56;;;;;;;22.02;10.75;;;0.60;99.90;;;;;;5035166;28;20052;-78
2022/12/04 06:17:22;;;;;;;24.88;10.30;;;0.60;99.90;;;;;;5035413;28;20041;-78
2022/12/04 06:19:49;;;;;;;25.65;9.70;;;0.60;99.90;;;;;;5035185;28;20041;-79
2022/12/04 06:22:15;;;;;;;28.02;10.90;;;0.60;99.90;;;;;;5035054;28;20047;-78
2022/12/04 06:24:41;;;;;;;25.73;9.02;;;0.60;99.90;;;;;;5034968;28;20045;-79
2022/12/04 06:27:06;;;;;;;21.42;9.68;;;0.60;99.90;;;;;;5034713;28;20462;-79
2022/12/04 06:29:32;;;;;;;29.90;10.82;;;0.60;99.90;;;;;;5035091;28;20079;-78
2022/12/04 06:31:58;;;;;;;29.15;11.23;;;0.60;99.90;;;;;;5035565;28;20106;-78
2022/12/04 06:34:24;;;;;;;26.15;10.63;;;0.60;99.90;;;;;;5038953;28;20052;-78
2022/12/04 06:36:49;;;;;;;32.25;11.13;;;0.60;99.90;;;;;;5038987;28;20579;-78
2022/12/04 06:39:15;;;;;;;24.42;10.00;;;0.60;99.90;;;;;;5022683;28;20033;-79
2022/12/04 06:41:40;;;;;;;29.73;11.60;;;0.60;99.90;;;;;;5038805;28;20112;-79
2022/12/04 06:44:06;;;;;;;25.65;9.82;;;0.60;99.90;;;;;;5022295;28;20415;-78
2022/12/04 06:46:33;;;;;;;25.38;11.70;;;0.60;99.90;;;;;;5022401;28;20029;-78
2022/12/04 06:49:00;;;;;;;34.42;11.95;;;0.60;99.90;;;;;;5038584;28;20056;-78
2022/12/04 06:51:31;;;;;;;31.65;9.27;;;0.70;99.90;;;;;;5038697;28;20045;-78
2022/12/04 06:53:57;;;;;;;;;;;0.60;99.90;;;;;;5039232;28;20045;-78
2022/12/04 06:56:26;;;;;;;29.20;10.95;;;0.50;99.90;;;;;;5055093;28;20374;-79
2022/12/04 06:58:54;;;;;;;26.33;9.68;;;0.50;99.90;;;;;;5021854;28;20072;-79
2022/12/04 07:01:26;;;;;;;19.77;9.75;;;0.60;99.90;;;;;;5038714;28;20124;-79
2022/12/04 07:03:52;;;;;;;25.27;10.10;;;0.60;99.90;;;;;;5021880;28;20037;-79
2022/12/04 07:06:23;;;;;;;27.85;11.73;;;0.50;99.90;;;;;;5021843;28;20502;-79
2022/12/04 07:08:53;;;;;;;;;;;0.50;99.90;;;;;;5022184;28;20134;-79
2022/12/04 07:11:21;;;;;;;26.05;10.05;;;0.50;99.90;;;;;;5038551;28;19924;-79
2022/12/04 07:13:48;;;;;;;27.52;10.30;;;0.50;99.90;;;;;;5022017;28;20162;-79
2022/12/04 07:16:16;;;;;;;23.20;8.80;;;0.50;99.90;;;;;;5038160;28;20037;-79
2022/12/04 07:18:42;;;;;;;22.52;9.40;;;0.50;99.90;;;;;;5038173;28;20049;-79
2022/12/04 07:21:10;;;;;;;22.25;9.75;;;0.50;99.90;;;;;;5038491;28;20484;-79
2022/12/04 07:23:37;;;;;;;25.83;11.02;;;0.50;99.90;;;;;;5038126;28;20071;-79
2022/12/04 07:26:07;;;;;;;29.42;10.77;;;0.50;99.90;;;;;;5054587;28;20136;-79
2022/12/04 07:28:34;;;;;;;21.30;10.10;;;0.50;99.90;;;;;;5038284;28;20056;-79
2022/12/04 07:31:05;;;;;;;24.23;10.82;;;0.50;99.90;;;;;;5038287;28;20128;-79
2022/12/04 07:33:31;;;;;;;27.30;10.25;;;0.50;99.90;;;;;;5038009;28;20049;-79
2022/12/04 07:35:58;;;;;;;29.30;10.07;;;0.50;99.90;;;;;;5021568;28;20399;-79
2022/12/04 07:38:24;;;;;;;23.60;10.75;;;0.50;99.90;;;;;;5037582;28;20111;-79
2022/12/04 07:40:49;;;;;;;24.40;9.48;;;0.50;99.90;;;;;;5037997;28;20091;-79
2022/12/04 07:43:17;;;;;;;33.10;12.02;;;0.50;99.90;;;;;;5021039;28;20033;-79
2022/12/04 07:45:43;;;;;;;27.55;10.38;;;0.60;99.90;;;;;;5037761;28;20033;-82
2022/12/04 07:48:09;;;;;;;25.20;10.18;;;0.60;99.90;;;;;;5037732;28;20045;-80
2022/12/04 07:50:35;;;;;;;28.05;11.77;;;0.50;99.90;;;;;;5037560;28;20041;-78
2022/12/04 07:53:00;;;;;;;27.10;11.15;;;0.50;99.90;;;;;;5037495;28;20095;-78
2022/12/04 07:55:26;;;;;;;25.33;10.32;;;0.60;99.90;;;;;;5020982;28;20236;-79
2022/12/04 07:57:51;;;;;;;26.45;11.70;;;0.60;99.90;;;;;;5037516;28;20492;-78
2022/12/04 08:00:18;;;;;;;33.20;12.82;;;0.50;99.90;;;;;;5037339;28;20041;-79
2022/12/04 08:02:43;;;;;;;19.98;9.43;;;0.50;99.90;;;;;;5037325;28;20033;-79
2022/12/04 08:05:09;;;;;;;29.92;10.40;;;0.50;99.90;;;;;;5037483;28;20048;-81
2022/12/04 08:07:34;;;;;;;23.02;9.98;;;0.90;99.90;;;;;;5037460;28;20037;-79
2022/12/04 08:10:00;;;;;;;29.67;11.65;;;0.50;99.90;;;;;;5020827;28;20099;-79
2022/12/04 08:12:26;;;;;;;27.80;10.88;;;0.60;99.90;;;;;;5037164;28;20040;-81
2022/12/04 08:14:52;;;;;;;24.77;11.00;;;0.60;99.90;;;;;;5020714;28;20075;-80
2022/12/04 08:17:17;;;;;;;19.17;8.77;;;0.60;99.90;;;;;;5038024;28;20045;-80
2022/12/04 08:19:43;;;;;;;24.98;11.23;;;0.60;99.90;;;;;;5037406;28;20047;-80
2022/12/04 08:22:08;;;;;;;21.60;9.75;;;0.60;99.90;;;;;;5037174;28;20037;-80
2022/12/04 08:24:35;;;;;;;30.27;11.02;;;0.60;99.90;;;;;;5031510;28;20504;-84
2022/12/04 08:27:01;;;;;;;23.65;9.15;;;0.60;99.90;;;;;;5000986;28;20091;-79
2022/12/04 08:29:27;;;;;;;23.38;10.23;;;0.60;99.90;;;;;;5000999;28;20085;-81
2022/12/04 08:31:53;;;;;;;27.73;11.88;;;0.70;99.90;;;;;;5018118;28;20033;-81
2022/12/04 08:34:19;;;;;;;23.33;10.30;;;0.70;99.90;;;;;;5000809;28;20391;-78
2022/12/04 08:36:44;;;;;;;26.45;10.30;;;0.70;99.90;;;;;;5003518;28;20033;-76
2022/12/04 08:39:11;;;;;;;26.50;10.55;;;2.30;99.90;;;;;;5000800;28;20484;-75
2022/12/04 08:41:37;;;;;;;29.58;10.52;;;0.70;99.90;;;;;;5016664;28;20038;-76
2022/12/04 08:44:03;;;;;;;27.17;11.43;;;0.80;99.90;;;;;;5016899;28;20039;-77
2022/12/04 08:46:29;;;;;;;25.38;10.18;;;0.70;99.90;;;;;;5016954;28;20037;-76
2022/12/04 08:48:55;;;;;;;24.63;10.20;;;0.80;99.90;;;;;;5017164;28;20048;-80
2022/12/04 08:51:24;;;;;;;25.88;11.05;;;0.80;99.90;;;;;;5016761;28;20047;-79
2022/12/04 08:53:58;;;;;;;18.27;9.00;;;0.90;99.90;;;;;;5000342;28;20056;-77
2022/12/04 08:56:27;;;;;;;24.08;10.68;;;0.80;99.90;;;;;;5016258;28;20140;-78
2022/12/04 08:58:55;;;;;;;20.55;9.20;;;0.90;99.90;;;;;;5016444;28;20566;-76
2022/12/04 09:01:21;;;;;;;22.05;9.23;;;0.90;99.90;;;;;;5016347;28;20072;-77
2022/12/04 09:03:47;;;;;;;23.40;9.73;;;0.90;99.90;;;;;;5016714;28;20499;-77
2022/12/04 09:06:14;;;;;;;23.75;9.93;;;0.90;99.90;;;;;;5000085;28;20111;-78
2022/12/04 09:08:40;;;;;;;21.17;9.70;;;0.90;99.90;;;;;;5000015;28;20045;-79
2022/12/04 09:11:14;;;;;;;25.05;9.65;;;1.00;99.90;;;;;;5000065;28;20055;-78
2022/12/04 09:13:40;;;;;;;29.75;11.40;;;1.00;99.90;;;;;;5000045;28;20044;-80
2022/12/04 09:16:12;;;;;;;19.67;9.25;;;2.40;99.90;;;;;;4999983;28;20045;-80
2022/12/04 09:18:38;;;;;;;25.10;10.15;;;1.00;99.90;;;;;;5000076;28;20129;-80
2022/12/04 09:21:07;;;;;;;26.27;10.40;;;1.00;99.90;;;;;;5016171;28;20034;-80
2022/12/04 09:23:35;;;;;;;17.77;8.65;;;1.10;99.90;;;;;;4999956;28;20037;-79
2022/12/04 09:26:01;;;;;;;21.50;9.65;;;1.10;99.90;;;;;;5016557;28;20395;-79
2022/12/04 09:28:27;;;;;;;24.50;10.40;;;1.10;99.90;;;;;;5036536;28;20041;-80
2022/12/04 09:31:02;;;;;;;20.58;8.75;;;1.10;99.90;;;;;;5019559;28;20083;-78
2022/12/04 09:33:29;;;;;;;19.95;9.55;;;1.20;99.90;;;;;;5035617;28;20071;-79
2022/12/04 09:35:57;;;;;;;28.67;10.90;;;1.20;99.90;;;;;;5019056;28;20045;-76
2022/12/04 09:38:23;;;;;;;25.60;9.73;;;1.20;99.90;;;;;;5019262;28;20047;-80
2022/12/04 09:41:14;;;;;;;24.70;10.32;;;1.20;99.90;;;;;;5035975;28;20488;-82
2022/12/04 09:43:50;;;;;;;20.98;8.45;;;1.20;99.90;;;;;;5019387;28;20041;-78
2022/12/04 09:46:22;;;;;;;20.58;10.00;;;1.30;99.90;;;;;;5035619;28;20045;-80
2022/12/04 09:48:49;;;;;;;21.35;9.48;;;1.30;99.90;;;;;;5019307;28;20053;-78
2022/12/04 09:51:20;;;;;;;21.67;9.55;;;1.30;99.90;;;;;;5019254;28;20036;-78
2022/12/04 09:54:02;;;;;;;19.17;8.77;;;1.40;99.90;;;;;;5035637;28;20052;-78
2022/12/04 09:56:29;;;;;;;18.17;9.20;;;1.40;99.90;;;;;;5004029;28;20055;-78
2022/12/04 09:58:58;;;;;;;17.88;7.80;;;1.40;99.90;;;;;;5035580;28;20079;-79
2022/12/04 10:01:28;;;;;;;23.02;9.73;;;1.40;99.90;;;;;;5019849;28;20048;-78
2022/12/04 10:03:55;;;;;;;21.65;9.38;;;1.50;99.90;;;;;;5020309;28;20041;-78
2022/12/04 10:06:35;;;;;;;21.50;9.02;;;1.50;99.90;;;;;;5020233;28;20416;-78
2022/12/04 10:09:11;;;;;;;20.55;8.63;;;1.60;99.90;;;;;;5038114;28;20571;-77
2022/12/04 10:11:55;;;;;;;21.05;8.80;;;1.60;99.90;;;;;;5038781;28;20094;-78
2022/12/04 10:14:42;;;;;;;21.73;8.93;;;1.60;99.90;;;;;;5038394;28;20053;-78
2022/12/04 10:17:50;;;;;;;17.60;9.23;;;1.60;99.90;;;;;;5038710;28;20051;-78
2022/12/04 10:20:44;;;;;;;16.27;7.72;;;1.70;99.90;;;;;;4989943;28;20049;-78
2022/12/04 10:23:37;;;;;;;21.80;7.53;;;1.70;99.90;;;;;;5038712;28;20041;-80
2022/12/04 10:26:06;;;;;;;19.35;8.55;;;1.80;99.90;;;;;;5020889;28;20056;-80
2022/12/04 10:28:42;;;;;;;18.83;8.13;;;1.80;99.90;;;;;;5037934;28;20123;-80
2022/12/04 10:31:13;;;;;;;21.65;8.25;;;2.80;99.90;;;;;;5038911;28;20068;-79
2022/12/04 10:33:46;;;;;;;17.23;8.93;;;2.00;99.90;;;;;;5038198;28;20041;-82
2022/12/04 10:36:16;;;;;;;25.00;8.88;;;2.00;99.90;;;;;;5036525;28;20045;-80
2022/12/04 10:38:50;;;;;;;21.63;8.68;;;2.10;99.90;;;;;;5020135;28;20492;-79
2022/12/04 10:41:33;;;;;;;16.58;7.78;;;2.10;99.90;;;;;;5036415;28;20107;-79
2022/12/04 10:43:59;;;;;;;18.23;8.15;;;2.10;99.90;;;;;;5036581;28;20079;-79
2022/12/04 10:46:30;;;;;;;21.17;7.95;;;2.10;99.90;;;;;;5041526;28;20484;-76
2022/12/04 10:49:05;;;;;;;21.00;9.05;;;2.10;99.90;;;;;;5041211;28;20048;-78
2022/12/04 10:51:38;;;;;;;15.50;7.22;;;2.10;99.90;;;;;;5041066;28;20045;-78
2022/12/04 10:54:19;;;;;;;15.77;7.90;;;2.10;99.90;;;;;;5045322;28;20044;-77
2022/12/04 10:57:00;;;;;;;16.55;6.88;;;2.40;99.90;;;;;;5043810;28;20044;-76
2022/12/04 10:59:27;;;;;;;17.70;7.53;;;2.10;99.90;;;;;;5042291;28;20055;-77
2022/12/04 11:01:59;;;;;;;15.48;6.93;;;2.10;99.90;;;;;;5041208;28;20120;-77
2022/12/04 11:04:29;;;;;;;17.52;8.07;;;2.30;99.90;;;;;;5023509;28;20039;-76
2022/12/04 11:07:25;;;;;;;17.88;8.05;;;2.10;99.90;;;;;;5035408;28;20094;-77
2022/12/04 11:10:02;;;;;;;15.55;5.95;;;2.20;99.90;;;;;;5018982;28;20048;-77
2022/12/04 11:12:28;;;;;;;14.00;6.90;;;2.10;99.90;;;;;;5019002;28;20056;-77
2022/12/04 11:15:14;;;;;;;18.20;7.45;;;2.20;99.90;;;;;;5019164;28;20037;-76
2022/12/04 11:17:40;;;;;;;19.08;7.65;;;2.10;99.90;;;;;;5018634;28;20091;-77
2022/12/04 11:20:14;;;;;;;15.20;7.10;;;2.10;99.90;;;;;;5021800;28;20484;-77
2022/12/04 11:22:48;;;;;;;16.25;7.22;;;2.10;99.90;;;;;;5038599;28;20138;-77
2022/12/04 11:25:17;;;;;;;17.35;7.20;;;2.20;99.90;;;;;;5027901;28;20049;-78
2022/12/04 11:27:45;;;;;;;17.58;7.28;;;2.20;99.90;;;;;;5002979;28;20054;-78
2022/12/04 11:30:17;;;;;;;16.58;7.68;;;2.20;99.90;;;;;;5002248;28;20111;-78
2022/12/04 11:32:44;;;;;;;16.33;6.72;;;2.20;99.90;;;;;;5017822;28;20033;-78
2022/12/04 11:35:22;;;;;;;18.13;7.80;;;2.70;99.90;;;;;;5018144;28;20392;-79
2022/12/04 11:37:59;;;;;;;17.35;7.35;;;2.20;99.90;;;;;;5003295;28;20045;-78
2022/12/04 11:40:26;;;;;;;15.43;7.18;;;4.10;99.90;;;;;;5003228;28;20033;-80
2022/12/04 11:43:11;;;;;;;11.55;6.20;;;2.20;99.90;;;;;;5019476;28;20115;-77
2022/12/04 11:45:37;;;;;;;16.45;7.15;;;2.20;99.90;;;;;;5018250;28;20439;-77
2022/12/04 11:48:13;;;;;;;14.52;6.50;;;2.90;99.90;;;;;;5017751;28;20048;-82
2022/12/04 11:51:07;;;;;;;18.35;7.15;;;2.20;99.90;;;;;;5001637;28;20041;-78
2022/12/04 11:54:20;;;;;;;11.52;5.60;;;2.30;99.90;;;;;;5002275;28;20610;-78
2022/12/04 11:56:54;;;;;;;12.20;5.57;;;2.30;99.90;;;;;;4996649;28;20132;-76
2022/12/04 11:59:52;;;;;;;14.15;6.78;;;2.30;99.90;;;;;;5001193;28;20180;-76
2022/12/04 12:02:51;;;;;;;13.50;6.00;;;2.30;99.90;;;;;;5003240;28;20037;-77
2022/12/04 12:05:38;;;;;;;16.05;6.60;;;2.40;99.90;;;;;;5003026;28;20041;-76
2022/12/04 12:08:26;;;;;;;16.20;6.20;;;2.40;99.90;;;;;;5003549;28;20073;-79
2022/12/04 12:11:17;;;;;;;14.30;7.00;;;2.40;99.90;;;;;;5021184;28;20045;-79
2022/12/04 12:14:05;;;;;;;13.30;6.85;;;2.40;99.90;;;;;;5019686;28;20051;-78
2022/12/04 12:16:40;;;;;;;14.80;5.72;;;2.40;99.90;;;;;;5019752;28;20045;-76
2022/12/04 12:19:40;;;;;;;20.38;6.55;;;3.30;99.90;;;;;;5019445;28;20403;-78
2022/12/04 12:22:30;;;;;;;13.38;6.28;;;2.50;99.90;;;;;;5021360;28;20041;-80
2022/12/04 12:25:15;;;;;;;15.90;6.75;;;2.50;99.90;;;;;;5026679;28;20048;-77
2022/12/04 12:27:55;;;;;;;12.80;6.13;;;2.50;99.90;;;;;;5039760;28;20084;-77
2022/12/04 12:30:22;;;;;;;13.98;6.28;;;2.50;99.90;;;;;;5037162;28;20385;-77
2022/12/04 12:33:17;;;;;;;15.25;6.45;;;2.50;99.90;;;;;;5037647;28;20059;-76
2022/12/04 12:36:04;;;;;;;11.27;5.03;;;2.60;99.90;;;;;;5037733;28;20087;-77
2022/12/04 12:38:48;;;;;;;15.88;6.78;;;2.60;99.90;;;;;;5037838;28;20127;-75
2022/12/04 12:41:19;;;;;;;15.73;6.00;;;2.60;99.90;;;;;;5039548;28;20071;-84
2022/12/04 12:43:54;;;;;;;12.88;5.68;;;2.60;99.90;;;;;;5023210;28;20040;-78
2022/12/04 12:46:47;;;;;;;12.93;5.57;;;2.60;99.90;;;;;;5038611;28;20041;-78
2022/12/04 12:49:25;;;;;;;13.95;6.97;;;2.60;99.90;;;;;;5022685;28;20438;-79
2022/12/04 12:52:29;;;;;;;16.65;6.65;;;2.60;99.90;;;;;;5039234;28;20044;-77
2022/12/04 12:55:12;;;;;;;13.07;5.85;;;2.60;99.90;;;;;;5038799;28;20487;-78
2022/12/04 12:57:41;;;;;;;15.68;6.38;;;2.60;99.90;;;;;;5023262;28;20056;-79
2022/12/04 13:00:19;;;;;;;15.38;5.95;;;2.60;99.90;;;;;;5039421;28;20045;-77
2022/12/04 13:03:15;;;;;;;14.65;6.80;;;2.60;99.90;;;;;;5039055;28;20048;-79
2022/12/04 13:05:45;;;;;;;11.93;6.60;;;2.50;99.90;;;;;;5039749;28;20401;-79
2022/12/04 13:08:17;;;;;;;15.80;6.77;;;2.60;99.90;;;;;;5022044;28;20047;-80
2022/12/04 13:10:48;;;;;;;13.68;5.82;;;2.50;99.90;;;;;;5021461;28;20067;-80
2022/12/04 13:13:24;;;;;;;16.55;6.60;;;2.50;99.90;;;;;;5021251;28;20139;-81
2022/12/04 13:16:19;;;;;;;13.13;6.38;;;2.50;99.90;;;;;;5038494;28;20041;-85
2022/12/04 13:19:22;;;;;;;13.05;6.80;;;2.50;99.90;;;;;;5023315;28;20049;-85
2022/12/04 13:21:56;;;;;;;18.00;7.30;;;2.50;99.90;;;;;;5025703;28;20048;-87